sensor_id;sensor_type;location;lat;lon;timestamp;P1;durP1;ratioP1;P2;durP2;ratioP2
32864;SDS011;19219;44.500;11.188;2023-04-01T00:00:54;15.23;;;7.45;;
32864;SDS011;19219;44.500;11.188;2023-04-01T00:03:22;9.07;;;7.07;;
32864;SDS011;19219;44.500;11.188;2023-04-01T00:05:48;13.40;;;7.30;;
32864;SDS011;19219;44.500;11.188;2023-04-01T00:08:14;13.20;;;8.02;;
32864;SDS011;19219;44.500;11.188;2023-04-01T00:10:40;12.88;;;8.35;;
32864;SDS011;19219;44.500;11.188;2023-04-01T00:13:06;16.55;;;8.18;;
32864;SDS011;19219;44.500;11.188;2023-04-01T00:15:32;10.75;;;7.07;;
32864;SDS011;19219;44.500;11.188;2023-04-01T00:17:58;16.02;;;9.05;;
32864;SDS011;19219;44.500;11.188;2023-04-01T00:20:24;14.18;;;8.30;;
32864;SDS011;19219;44.500;11.188;2023-04-01T00:22:50;17.42;;;9.00;;
32864;SDS011;19219;44.500;11.188;2023-04-01T00:25:16;12.27;;;7.95;;
32864;SDS011;19219;44.500;11.188;2023-04-01T00:27:42;15.13;;;8.38;;
32864;SDS011;19219;44.500;11.188;2023-04-01T00:30:08;11.80;;;8.45;;
32864;SDS011;19219;44.500;11.188;2023-04-01T00:32:34;15.23;;;8.50;;
32864;SDS011;19219;44.500;11.188;2023-04-01T00:35:01;17.73;;;8.50;;
32864;SDS011;19219;44.500;11.188;2023-04-01T00:37:27;17.52;;;9.60;;
32864;SDS011;19219;44.500;11.188;2023-04-01T00:39:53;13.75;;;9.52;;
32864;SDS011;19219;44.500;11.188;2023-04-01T00:42:19;18.05;;;10.68;;
32864;SDS011;19219;44.500;11.188;2023-04-01T00:44:48;19.58;;;11.20;;
32864;SDS011;19219;44.500;11.188;2023-04-01T00:47:19;20.70;;;11.70;;
32864;SDS011;19219;44.500;11.188;2023-04-01T00:49:45;16.08;;;10.82;;
32864;SDS011;19219;44.500;11.188;2023-04-01T00:52:14;18.63;;;11.32;;
32864;SDS011;19219;44.500;11.188;2023-04-01T00:54:43;18.30;;;11.20;;
32864;SDS011;19219;44.500;11.188;2023-04-01T01:00:01;22.05;;;12.65;;
32864;SDS011;19219;44.500;11.188;2023-04-01T01:02:29;23.73;;;12.55;;
32864;SDS011;19219;44.500;11.188;2023-04-01T01:04:57;20.25;;;12.30;;
32864;SDS011;19219;44.500;11.188;2023-04-01T01:10:42;23.65;;;13.43;;
32864;SDS011;19219;44.500;11.188;2023-04-01T01:13:25;20.55;;;12.65;;
32864;SDS011;19219;44.500;11.188;2023-04-01T01:16:00;23.33;;;13.82;;
32864;SDS011;19219;44.500;11.188;2023-04-01T01:23:58;20.58;;;12.32;;
32864;SDS011;19219;44.500;11.188;2023-04-01T01:29:45;19.27;;;12.50;;
32864;SDS011;19219;44.500;11.188;2023-04-01T01:38:16;20.55;;;11.27;;
32864;SDS011;19219;44.500;11.188;2023-04-01T01:40:45;23.17;;;12.02;;
32864;SDS011;19219;44.500;11.188;2023-04-01T01:43:14;21.30;;;12.63;;
32864;SDS011;19219;44.500;11.188;2023-04-01T01:45:45;17.45;;;12.20;;
32864;SDS011;19219;44.500;11.188;2023-04-01T01:48:15;20.15;;;12.70;;
32864;SDS011;19219;44.500;11.188;2023-04-01T01:50:43;19.95;;;11.85;;
32864;SDS011;19219;44.500;11.188;2023-04-01T01:53:11;24.40;;;13.35;;
32864;SDS011;19219;44.500;11.188;2023-04-01T01:55:41;23.80;;;13.43;;
32864;SDS011;19219;44.500;11.188;2023-04-01T01:58:51;33.97;;;14.90;;
32864;SDS011;19219;44.500;11.188;2023-04-01T02:01:02;26.23;;;15.32;;
32864;SDS011;19219;44.500;11.188;2023-04-01T02:03:31;30.17;;;15.57;;
32864;SDS011;19219;44.500;11.188;2023-04-01T02:06:01;27.05;;;15.85;;
32864;SDS011;19219;44.500;11.188;2023-04-01T02:10:57;30.75;;;16.30;;
32864;SDS011;19219;44.500;11.188;2023-04-01T02:13:29;28.85;;;17.83;;
32864;SDS011;19219;44.500;11.188;2023-04-01T02:16:02;33.10;;;18.30;;
32864;SDS011;19219;44.500;11.188;2023-04-01T02:18:33;35.03;;;17.95;;
32864;SDS011;19219;44.500;11.188;2023-04-01T02:21:02;31.10;;;18.45;;
32864;SDS011;19219;44.500;11.188;2023-04-01T02:23:30;30.58;;;17.38;;
32864;SDS011;19219;44.500;11.188;2023-04-01T02:25:59;31.42;;;18.00;;
32864;SDS011;19219;44.500;11.188;2023-04-01T02:28:25;24.70;;;15.63;;
32864;SDS011;19219;44.500;11.188;2023-04-01T02:30:53;28.33;;;17.50;;
32864;SDS011;19219;44.500;11.188;2023-04-01T02:33:19;25.55;;;16.23;;
32864;SDS011;19219;44.500;11.188;2023-04-01T02:35:46;35.70;;;17.17;;
32864;SDS011;19219;44.500;11.188;2023-04-01T02:38:12;35.28;;;18.40;;
32864;SDS011;19219;44.500;11.188;2023-04-01T02:40:42;37.58;;;20.40;;
32864;SDS011;19219;44.500;11.188;2023-04-01T02:43:10;36.03;;;18.55;;
32864;SDS011;19219;44.500;11.188;2023-04-01T02:45:36;34.22;;;18.15;;
32864;SDS011;19219;44.500;11.188;2023-04-01T02:48:02;38.65;;;20.50;;
32864;SDS011;19219;44.500;11.188;2023-04-01T02:50:28;36.45;;;20.17;;
32864;SDS011;19219;44.500;11.188;2023-04-01T02:52:53;37.65;;;20.70;;
32864;SDS011;19219;44.500;11.188;2023-04-01T02:55:19;38.28;;;23.60;;
32864;SDS011;19219;44.500;11.188;2023-04-01T02:57:45;41.65;;;21.65;;
32864;SDS011;19219;44.500;11.188;2023-04-01T03:00:10;42.67;;;23.25;;
32864;SDS011;19219;44.500;11.188;2023-04-01T03:02:38;38.92;;;21.02;;
32864;SDS011;19219;44.500;11.188;2023-04-01T03:05:04;37.47;;;22.45;;
32864;SDS011;19219;44.500;11.188;2023-04-01T03:07:30;38.60;;;23.00;;
32864;SDS011;19219;44.500;11.188;2023-04-01T03:09:56;41.85;;;22.42;;
32864;SDS011;19219;44.500;11.188;2023-04-01T03:12:22;40.05;;;22.85;;
32864;SDS011;19219;44.500;11.188;2023-04-01T03:14:47;44.67;;;24.35;;
32864;SDS011;19219;44.500;11.188;2023-04-01T03:17:13;43.80;;;24.73;;
32864;SDS011;19219;44.500;11.188;2023-04-01T03:19:39;43.92;;;24.08;;
32864;SDS011;19219;44.500;11.188;2023-04-01T03:22:04;46.00;;;23.27;;
32864;SDS011;19219;44.500;11.188;2023-04-01T03:24:30;43.13;;;24.27;;
32864;SDS011;19219;44.500;11.188;2023-04-01T03:26:56;39.17;;;23.05;;
32864;SDS011;19219;44.500;11.188;2023-04-01T03:29:21;44.40;;;22.23;;
32864;SDS011;19219;44.500;11.188;2023-04-01T03:31:47;37.60;;;22.20;;
32864;SDS011;19219;44.500;11.188;2023-04-01T03:34:13;37.92;;;21.95;;
32864;SDS011;19219;44.500;11.188;2023-04-01T03:36:38;37.25;;;22.27;;
32864;SDS011;19219;44.500;11.188;2023-04-01T03:39:04;39.75;;;22.85;;
32864;SDS011;19219;44.500;11.188;2023-04-01T03:41:32;47.88;;;22.42;;
32864;SDS011;19219;44.500;11.188;2023-04-01T03:44:01;37.58;;;22.58;;
32864;SDS011;19219;44.500;11.188;2023-04-01T03:46:27;40.72;;;23.27;;
32864;SDS011;19219;44.500;11.188;2023-04-01T03:48:52;41.78;;;24.75;;
32864;SDS011;19219;44.500;11.188;2023-04-01T03:51:18;52.78;;;25.58;;
32864;SDS011;19219;44.500;11.188;2023-04-01T03:53:44;49.50;;;26.73;;
32864;SDS011;19219;44.500;11.188;2023-04-01T03:56:10;44.63;;;26.27;;
32864;SDS011;19219;44.500;11.188;2023-04-01T03:58:36;42.20;;;23.95;;
32864;SDS011;19219;44.500;11.188;2023-04-01T04:01:12;44.10;;;23.63;;
32864;SDS011;19219;44.500;11.188;2023-04-01T04:03:39;50.40;;;26.63;;
32864;SDS011;19219;44.500;11.188;2023-04-01T04:06:05;44.60;;;26.27;;
32864;SDS011;19219;44.500;11.188;2023-04-01T04:08:30;45.25;;;25.42;;
32864;SDS011;19219;44.500;11.188;2023-04-01T04:10:56;82.97;;;42.20;;
32864;SDS011;19219;44.500;11.188;2023-04-01T04:13:22;54.25;;;27.77;;
32864;SDS011;19219;44.500;11.188;2023-04-01T04:15:47;40.53;;;25.63;;
32864;SDS011;19219;44.500;11.188;2023-04-01T04:18:13;47.88;;;25.33;;
32864;SDS011;19219;44.500;11.188;2023-04-01T04:20:43;43.85;;;24.58;;
32864;SDS011;19219;44.500;11.188;2023-04-01T04:23:16;40.30;;;23.85;;
32864;SDS011;19219;44.500;11.188;2023-04-01T04:25:52;40.35;;;23.92;;
32864;SDS011;19219;44.500;11.188;2023-04-01T04:28:23;41.38;;;23.55;;
32864;SDS011;19219;44.500;11.188;2023-04-01T04:30:49;47.10;;;23.98;;
32864;SDS011;19219;44.500;11.188;2023-04-01T04:33:15;40.33;;;24.90;;
32864;SDS011;19219;44.500;11.188;2023-04-01T04:35:41;47.55;;;25.17;;
32864;SDS011;19219;44.500;11.188;2023-04-01T04:38:07;44.28;;;25.30;;
32864;SDS011;19219;44.500;11.188;2023-04-01T04:40:32;41.70;;;24.85;;
32864;SDS011;19219;44.500;11.188;2023-04-01T04:43:00;51.45;;;28.85;;
32864;SDS011;19219;44.500;11.188;2023-04-01T04:45:26;50.45;;;27.95;;
32864;SDS011;19219;44.500;11.188;2023-04-01T04:47:51;49.65;;;29.90;;
32864;SDS011;19219;44.500;11.188;2023-04-01T04:50:17;55.90;;;30.67;;
32864;SDS011;19219;44.500;11.188;2023-04-01T04:52:43;54.10;;;30.50;;
32864;SDS011;19219;44.500;11.188;2023-04-01T04:55:08;55.50;;;30.63;;
32864;SDS011;19219;44.500;11.188;2023-04-01T04:57:34;50.80;;;29.40;;
32864;SDS011;19219;44.500;11.188;2023-04-01T05:00:00;56.05;;;29.50;;
32864;SDS011;19219;44.500;11.188;2023-04-01T05:02:25;50.58;;;29.02;;
32864;SDS011;19219;44.500;11.188;2023-04-01T05:04:51;61.03;;;30.95;;
32864;SDS011;19219;44.500;11.188;2023-04-01T05:07:17;58.08;;;33.60;;
32864;SDS011;19219;44.500;11.188;2023-04-01T05:09:42;52.63;;;32.22;;
32864;SDS011;19219;44.500;11.188;2023-04-01T05:12:10;58.70;;;31.23;;
32864;SDS011;19219;44.500;11.188;2023-04-01T05:14:38;52.38;;;28.27;;
32864;SDS011;19219;44.500;11.188;2023-04-01T05:17:03;50.63;;;29.77;;
32864;SDS011;19219;44.500;11.188;2023-04-01T05:19:33;54.53;;;31.83;;
32864;SDS011;19219;44.500;11.188;2023-04-01T05:21:58;61.50;;;32.88;;
32864;SDS011;19219;44.500;11.188;2023-04-01T05:24:24;54.78;;;29.95;;
32864;SDS011;19219;44.500;11.188;2023-04-01T05:26:50;49.80;;;31.25;;
32864;SDS011;19219;44.500;11.188;2023-04-01T05:29:15;59.33;;;34.40;;
32864;SDS011;19219;44.500;11.188;2023-04-01T05:31:41;62.75;;;34.60;;
32864;SDS011;19219;44.500;11.188;2023-04-01T05:34:06;52.45;;;32.78;;
32864;SDS011;19219;44.500;11.188;2023-04-01T05:36:32;61.00;;;34.85;;
32864;SDS011;19219;44.500;11.188;2023-04-01T05:38:59;62.58;;;32.65;;
32864;SDS011;19219;44.500;11.188;2023-04-01T05:41:24;59.38;;;35.50;;
32864;SDS011;19219;44.500;11.188;2023-04-01T05:43:50;60.35;;;36.53;;
32864;SDS011;19219;44.500;11.188;2023-04-01T05:46:16;62.33;;;34.45;;
32864;SDS011;19219;44.500;11.188;2023-04-01T05:48:42;55.60;;;33.88;;
32864;SDS011;19219;44.500;11.188;2023-04-01T05:51:12;58.33;;;34.00;;
32864;SDS011;19219;44.500;11.188;2023-04-01T05:53:38;60.63;;;34.13;;
32864;SDS011;19219;44.500;11.188;2023-04-01T05:56:04;55.78;;;33.95;;
32864;SDS011;19219;44.500;11.188;2023-04-01T05:58:31;55.25;;;33.53;;
32864;SDS011;19219;44.500;11.188;2023-04-01T06:01:00;68.55;;;39.85;;
32864;SDS011;19219;44.500;11.188;2023-04-01T06:03:31;63.30;;;34.80;;
32864;SDS011;19219;44.500;11.188;2023-04-01T06:05:57;67.25;;;38.40;;
32864;SDS011;19219;44.500;11.188;2023-04-01T06:08:23;178.07;;;92.95;;
32864;SDS011;19219;44.500;11.188;2023-04-01T06:20:00;56.88;;;32.53;;
32864;SDS011;19219;44.500;11.188;2023-04-01T06:38:32;32.10;;;22.70;;
32864;SDS011;19219;44.500;11.188;2023-04-01T06:54:44;33.65;;;24.17;;
32864;SDS011;19219;44.500;11.188;2023-04-01T06:59:58;30.07;;;22.63;;
32864;SDS011;19219;44.500;11.188;2023-04-01T07:02:34;31.77;;;22.48;;
32864;SDS011;19219;44.500;11.188;2023-04-01T07:05:06;34.15;;;24.50;;
32864;SDS011;19219;44.500;11.188;2023-04-01T07:07:49;29.30;;;24.15;;
32864;SDS011;19219;44.500;11.188;2023-04-01T07:10:28;30.77;;;21.40;;
32864;SDS011;19219;44.500;11.188;2023-04-01T07:13:06;29.55;;;21.23;;
32864;SDS011;19219;44.500;11.188;2023-04-01T07:15:42;29.63;;;20.27;;
32864;SDS011;19219;44.500;11.188;2023-04-01T07:18:12;25.95;;;19.25;;
32864;SDS011;19219;44.500;11.188;2023-04-01T07:20:42;22.25;;;14.07;;
32864;SDS011;19219;44.500;11.188;2023-04-01T07:23:44;15.85;;;11.02;;
32864;SDS011;19219;44.500;11.188;2023-04-01T07:26:06;13.52;;;9.85;;
32864;SDS011;19219;44.500;11.188;2023-04-01T07:28:41;15.23;;;10.13;;
32864;SDS011;19219;44.500;11.188;2023-04-01T07:31:15;11.55;;;8.10;;
32864;SDS011;19219;44.500;11.188;2023-04-01T07:56:49;19.67;;;12.88;;
32864;SDS011;19219;44.500;11.188;2023-04-01T08:06:45;25.20;;;16.42;;
32864;SDS011;19219;44.500;11.188;2023-04-01T08:12:18;27.90;;;18.25;;
32864;SDS011;19219;44.500;11.188;2023-04-01T08:20:46;27.15;;;14.70;;
32864;SDS011;19219;44.500;11.188;2023-04-01T08:25:46;21.73;;;17.40;;
32864;SDS011;19219;44.500;11.188;2023-04-01T08:28:21;24.40;;;17.02;;
32864;SDS011;19219;44.500;11.188;2023-04-01T08:42:06;22.13;;;15.68;;
32864;SDS011;19219;44.500;11.188;2023-04-01T08:46:45;20.42;;;15.75;;
32864;SDS011;19219;44.500;11.188;2023-04-01T08:55:01;26.38;;;17.42;;
32864;SDS011;19219;44.500;11.188;2023-04-01T09:02:51;29.17;;;16.77;;
32864;SDS011;19219;44.500;11.188;2023-04-01T09:11:30;28.88;;;19.77;;
32864;SDS011;19219;44.500;11.188;2023-04-01T09:22:56;29.05;;;20.02;;
32864;SDS011;19219;44.500;11.188;2023-04-01T09:25:31;31.83;;;19.65;;
32864;SDS011;19219;44.500;11.188;2023-04-01T09:28:28;28.83;;;17.33;;
32864;SDS011;19219;44.500;11.188;2023-04-01T09:31:22;22.15;;;16.17;;
32864;SDS011;19219;44.500;11.188;2023-04-01T09:38:57;21.75;;;15.35;;
32864;SDS011;19219;44.500;11.188;2023-04-01T09:41:54;23.60;;;13.80;;
32864;SDS011;19219;44.500;11.188;2023-04-01T09:58:28;18.17;;;13.57;;
32864;SDS011;19219;44.500;11.188;2023-04-01T10:35:04;19.35;;;10.63;;
32864;SDS011;19219;44.500;11.188;2023-04-01T10:40:21;18.02;;;10.90;;
32864;SDS011;19219;44.500;11.188;2023-04-01T10:43:20;11.68;;;7.53;;
32864;SDS011;19219;44.500;11.188;2023-04-01T11:37:04;11.25;;;6.40;;
32864;SDS011;19219;44.500;11.188;2023-04-01T11:42:41;10.48;;;5.93;;
32864;SDS011;19219;44.500;11.188;2023-04-01T12:01:58;5.05;;;3.53;;
32864;SDS011;19219;44.500;11.188;2023-04-01T12:04:35;4.60;;;3.15;;
32864;SDS011;19219;44.500;11.188;2023-04-01T12:10:12;7.15;;;4.60;;
32864;SDS011;19219;44.500;11.188;2023-04-01T12:31:31;13.68;;;10.45;;
32864;SDS011;19219;44.500;11.188;2023-04-01T12:59:17;4.25;;;2.75;;
32864;SDS011;19219;44.500;11.188;2023-04-01T13:04:57;4.45;;;2.00;;
32864;SDS011;19219;44.500;11.188;2023-04-01T13:07:41;3.47;;;2.13;;
32864;SDS011;19219;44.500;11.188;2023-04-01T13:13:16;6.25;;;3.80;;
32864;SDS011;19219;44.500;11.188;2023-04-01T13:21:40;4.88;;;1.95;;
32864;SDS011;19219;44.500;11.188;2023-04-01T13:27:21;2.70;;;2.50;;
32864;SDS011;19219;44.500;11.188;2023-04-01T13:32:34;2.17;;;1.52;;
32864;SDS011;19219;44.500;11.188;2023-04-01T13:56:27;4.43;;;2.60;;
32864;SDS011;19219;44.500;11.188;2023-04-01T14:05:32;3.70;;;2.72;;
32864;SDS011;19219;44.500;11.188;2023-04-01T14:10:43;6.07;;;4.00;;
32864;SDS011;19219;44.500;11.188;2023-04-01T14:13:50;4.28;;;2.50;;
32864;SDS011;19219;44.500;11.188;2023-04-01T14:21:43;3.35;;;2.25;;
32864;SDS011;19219;44.500;11.188;2023-04-01T14:48:57;4.15;;;3.15;;
32864;SDS011;19219;44.500;11.188;2023-04-01T14:54:08;6.13;;;3.53;;
32864;SDS011;19219;44.500;11.188;2023-04-01T14:56:51;4.22;;;3.15;;
32864;SDS011;19219;44.500;11.188;2023-04-01T14:59:48;4.90;;;2.78;;
32864;SDS011;19219;44.500;11.188;2023-04-01T15:05:39;3.45;;;2.60;;
32864;SDS011;19219;44.500;11.188;2023-04-01T15:08:29;9.48;;;6.10;;
32864;SDS011;19219;44.500;11.188;2023-04-01T15:32:20;5.65;;;2.58;;
32864;SDS011;19219;44.500;11.188;2023-04-01T15:35:46;3.58;;;2.25;;
32864;SDS011;19219;44.500;11.188;2023-04-01T15:37:55;2.78;;;2.47;;
32864;SDS011;19219;44.500;11.188;2023-04-01T15:49:01;3.95;;;2.08;;
32864;SDS011;19219;44.500;11.188;2023-04-01T15:57:09;2.97;;;2.22;;
32864;SDS011;19219;44.500;11.188;2023-04-01T16:02:32;3.22;;;2.10;;
32864;SDS011;19219;44.500;11.188;2023-04-01T16:05:25;7.53;;;1.95;;
32864;SDS011;19219;44.500;11.188;2023-04-01T16:13:53;5.72;;;2.28;;
32864;SDS011;19219;44.500;11.188;2023-04-01T16:19:27;6.88;;;2.30;;
32864;SDS011;19219;44.500;11.188;2023-04-01T16:22:29;5.93;;;2.60;;
32864;SDS011;19219;44.500;11.188;2023-04-01T16:25:14;7.05;;;2.10;;
32864;SDS011;19219;44.500;11.188;2023-04-01T16:31:00;3.78;;;1.75;;
32864;SDS011;19219;44.500;11.188;2023-04-01T16:36:22;4.53;;;1.40;;
32864;SDS011;19219;44.500;11.188;2023-04-01T16:41:49;8.63;;;2.35;;
32864;SDS011;19219;44.500;11.188;2023-04-01T16:44:23;3.38;;;1.98;;
32864;SDS011;19219;44.500;11.188;2023-04-01T16:46:52;7.63;;;2.85;;
32864;SDS011;19219;44.500;11.188;2023-04-01T16:49:36;9.70;;;4.22;;
32864;SDS011;19219;44.500;11.188;2023-04-01T16:52:16;7.50;;;2.22;;
32864;SDS011;19219;44.500;11.188;2023-04-01T16:54:59;2.95;;;1.30;;
32864;SDS011;19219;44.500;11.188;2023-04-01T17:00:28;3.60;;;1.40;;
32864;SDS011;19219;44.500;11.188;2023-04-01T17:24:14;5.95;;;1.10;;
32864;SDS011;19219;44.500;11.188;2023-04-01T17:35:56;3.40;;;1.40;;
32864;SDS011;19219;44.500;11.188;2023-04-01T17:44:13;1.67;;;1.13;;
32864;SDS011;19219;44.500;11.188;2023-04-01T17:49:56;7.75;;;2.10;;
32864;SDS011;19219;44.500;11.188;2023-04-01T17:52:39;1.35;;;1.13;;
32864;SDS011;19219;44.500;11.188;2023-04-01T17:58:03;2.28;;;1.40;;
32864;SDS011;19219;44.500;11.188;2023-04-01T18:01:55;2.20;;;1.27;;
32864;SDS011;19219;44.500;11.188;2023-04-01T18:18:26;1.50;;;1.20;;
32864;SDS011;19219;44.500;11.188;2023-04-01T18:21:00;1.75;;;1.10;;
32864;SDS011;19219;44.500;11.188;2023-04-01T18:23:30;2.10;;;1.17;;
32864;SDS011;19219;44.500;11.188;2023-04-01T18:26:13;1.75;;;1.38;;
32864;SDS011;19219;44.500;11.188;2023-04-01T18:29:24;2.75;;;1.33;;
32864;SDS011;19219;44.500;11.188;2023-04-01T18:31:43;7.43;;;3.47;;
32864;SDS011;19219;44.500;11.188;2023-04-01T18:34:18;3.10;;;1.60;;
32864;SDS011;19219;44.500;11.188;2023-04-01T18:39:54;2.53;;;1.40;;
32864;SDS011;19219;44.500;11.188;2023-04-01T18:43:39;1.73;;;1.00;;
32864;SDS011;19219;44.500;11.188;2023-04-01T18:45:58;2.88;;;1.00;;
32864;SDS011;19219;44.500;11.188;2023-04-01T18:53:58;8.13;;;4.13;;
32864;SDS011;19219;44.500;11.188;2023-04-01T18:56:30;6.22;;;1.50;;
32864;SDS011;19219;44.500;11.188;2023-04-01T18:59:26;2.85;;;1.13;;
32864;SDS011;19219;44.500;11.188;2023-04-01T19:07:53;2.22;;;1.30;;
32864;SDS011;19219;44.500;11.188;2023-04-01T19:11:06;1.80;;;1.20;;
32864;SDS011;19219;44.500;11.188;2023-04-01T19:21:57;3.95;;;1.23;;
32864;SDS011;19219;44.500;11.188;2023-04-01T19:35:16;2.72;;;1.52;;
32864;SDS011;19219;44.500;11.188;2023-04-01T19:38:03;3.45;;;1.30;;
32864;SDS011;19219;44.500;11.188;2023-04-01T19:49:11;22.63;;;9.65;;
32864;SDS011;19219;44.500;11.188;2023-04-01T19:55:11;5.13;;;2.10;;
32864;SDS011;19219;44.500;11.188;2023-04-01T20:00:53;9.30;;;2.47;;
32864;SDS011;19219;44.500;11.188;2023-04-01T20:03:39;10.85;;;2.47;;
32864;SDS011;19219;44.500;11.188;2023-04-01T20:06:29;13.05;;;2.80;;
32864;SDS011;19219;44.500;11.188;2023-04-01T20:09:34;19.48;;;8.75;;
32864;SDS011;19219;44.500;11.188;2023-04-01T20:14:54;16.63;;;6.95;;
32864;SDS011;19219;44.500;11.188;2023-04-01T20:22:50;8.07;;;2.55;;
32864;SDS011;19219;44.500;11.188;2023-04-01T20:25:41;10.57;;;2.33;;
32864;SDS011;19219;44.500;11.188;2023-04-01T20:36:26;6.13;;;2.40;;
32864;SDS011;19219;44.500;11.188;2023-04-01T20:44:21;9.38;;;2.17;;
32864;SDS011;19219;44.500;11.188;2023-04-01T20:52:41;9.07;;;2.05;;
32864;SDS011;19219;44.500;11.188;2023-04-01T21:08:51;13.13;;;2.95;;
32864;SDS011;19219;44.500;11.188;2023-04-01T21:14:29;6.32;;;2.88;;
32864;SDS011;19219;44.500;11.188;2023-04-01T21:22:36;15.30;;;3.00;;
32864;SDS011;19219;44.500;11.188;2023-04-01T21:27:58;6.25;;;2.47;;
32864;SDS011;19219;44.500;11.188;2023-04-01T21:33:37;4.85;;;2.17;;
32864;SDS011;19219;44.500;11.188;2023-04-01T21:56:09;14.98;;;3.03;;
32864;SDS011;19219;44.500;11.188;2023-04-01T22:04:50;9.45;;;2.60;;
32864;SDS011;19219;44.500;11.188;2023-04-01T22:07:39;21.65;;;3.88;;
32864;SDS011;19219;44.500;11.188;2023-04-01T22:10:19;9.65;;;2.33;;
32864;SDS011;19219;44.500;11.188;2023-04-01T22:12:59;7.82;;;2.75;;
32864;SDS011;19219;44.500;11.188;2023-04-01T22:18:30;46.03;;;18.20;;
32864;SDS011;19219;44.500;11.188;2023-04-01T22:26:40;13.38;;;3.65;;
32864;SDS011;19219;44.500;11.188;2023-04-01T22:29:27;12.52;;;3.30;;
32864;SDS011;19219;44.500;11.188;2023-04-01T22:32:11;8.77;;;2.72;;
32864;SDS011;19219;44.500;11.188;2023-04-01T22:37:13;7.25;;;1.98;;
32864;SDS011;19219;44.500;11.188;2023-04-01T22:40:08;13.07;;;3.00;;
32864;SDS011;19219;44.500;11.188;2023-04-01T22:53:27;10.90;;;2.42;;
32864;SDS011;19219;44.500;11.188;2023-04-01T22:55:57;8.00;;;3.35;;
32864;SDS011;19219;44.500;11.188;2023-04-01T22:58:32;13.48;;;3.00;;
32864;SDS011;19219;44.500;11.188;2023-04-01T23:01:05;8.85;;;2.60;;
32864;SDS011;19219;44.500;11.188;2023-04-01T23:03:38;9.55;;;3.05;;
32864;SDS011;19219;44.500;11.188;2023-04-01T23:06:06;10.25;;;2.47;;
32864;SDS011;19219;44.500;11.188;2023-04-01T23:16:47;17.60;;;3.22;;
32864;SDS011;19219;44.500;11.188;2023-04-01T23:19:34;25.95;;;4.03;;
32864;SDS011;19219;44.500;11.188;2023-04-01T23:29:59;8.43;;;2.83;;
32864;SDS011;19219;44.500;11.188;2023-04-01T23:32:24;13.25;;;2.95;;
32864;SDS011;19219;44.500;11.188;2023-04-01T23:34:58;11.23;;;2.47;;
32864;SDS011;19219;44.500;11.188;2023-04-01T23:37:25;11.10;;;3.00;;
32864;SDS011;19219;44.500;11.188;2023-04-01T23:39:52;10.70;;;2.60;;
32864;SDS011;19219;44.500;11.188;2023-04-01T23:42:21;9.82;;;2.42;;
32864;SDS011;19219;44.500;11.188;2023-04-01T23:44:51;13.15;;;3.65;;
32864;SDS011;19219;44.500;11.188;2023-04-01T23:47:21;13.88;;;4.07;;
32864;SDS011;19219;44.500;11.188;2023-04-01T23:50:11;8.80;;;2.38;;
32864;SDS011;19219;44.500;11.188;2023-04-01T23:53:01;9.75;;;2.85;;
32864;SDS011;19219;44.500;11.188;2023-04-01T23:55:31;9.60;;;2.72;;
